• Join FlightAware (Why Join?)
  • Login
  • US Flag 
04:28AM EST


 

Airport Tracker/Info


-or-


 

Live Flight TrackerFlight Track Log ✈ NKS940 ✈ 20-Jul-2013 ✈ KDFW - KORD

Flight Track Log - Related Links

Times and Time Zones

All times are in EDT time to prevent confusion due to time zone crossing. See the NKS940 flight status page for this flight to view local times or setup timezone preferences in your user account.

Time Position Orientation Groundspeed Altitude Reporting Facility
EDT Latitude Longitude Course Direction KTS MPH feet Rate Location/Type
07:31AM 32.8630 -97.0500 177° South 173 199 2,100  Level FlightAware
07:32AM 32.8460 -97.0530 188° South 189 217 2,500 1,200 Climbing FlightAware
07:32AM 32.8150 -97.0650 198° South 234 269 3,100 1,620 Climbing FlightAware
07:32AM 32.7920 -97.0750 200° South 250 288 4,000 2,400 Climbing FlightAware
07:33AM 32.7790 -97.0860 215° Southwest 259 298 4,600 3,720 Climbing FlightAware
07:33AM 32.7670 -97.1270 251° West 268 308 6,000 3,060 Climbing FlightAware
07:34AM 32.7690 -97.1890 272° West 290 334 7,700 2,520 Climbing FlightAware
07:34AM 32.7730 -97.2060 286° West 289 333 8,200 2,400 Climbing FlightAware
07:34AM 32.7790 -97.2150 308° West 290 334 8,500 2,580 Climbing FlightAware
07:34AM 32.7970 -97.2300 325° Northwest 290 334 9,200 2,640 Climbing FlightAware
07:34AM 32.8100 -97.2330 349° North 293 337 9,600 1,800 Climbing FlightAware
07:35AM 32.8520 -97.2260 North 312 359 10,500 1,260 Climbing FlightAware
07:36AM 32.9100 -97.2140 10° North 353 406 11,200 1,680 Climbing FlightAware
07:36AM 32.9830 -97.2000 North 364 419 12,900 2,100 Climbing FlightAware
07:37AM 33.0410 -97.1890 North 370 426 14,200 2,160 Climbing FlightAware
07:38AM 33.1240 -97.1730 North 382 440 15,800 2,340 Climbing FlightAware
07:38AM 33.2040 -97.1570 10° North 389 448 17,400 1,920 Climbing FlightAware
07:39AM 33.2940 -97.1400 North 398 458 18,900 1,800 Climbing FlightAware
07:40AM 33.3730 -97.1250 North 403 464 20,200 1,560 Climbing FlightAware
07:41AM 33.4460 -97.1100 10° North 411 473 21,100 1,440 Climbing FlightAware
07:41AM 33.5180 -97.1010 North 415 478 22,100 1,320 Climbing FlightAware
07:42AM 33.5990 -97.0910 North 423 487 22,900 1,140 Climbing FlightAware
07:43AM 33.6700 -97.0810 North 427 491 23,700 1,140 Climbing FlightAware
07:43AM 33.7410 -97.0720 North 431 496 24,500 1,200 Climbing FlightAware
07:44AM 33.8370 -97.0600 North 437 503 25,500 1,140 Climbing FlightAware
07:45AM 33.9120 -97.0510 North 441 507 26,200 1,020 Climbing FlightAware
07:46AM 34.0350 -97.0350 North 452 520 27,100 1,080 Climbing FlightAware
07:46AM 34.1100 -97.0250 North 456 525 27,700 900 Climbing FlightAware
07:47AM 34.1960 -97.0140 North 460 529 28,300 1,020 Climbing FlightAware
07:47AM 34.2820 -97.0030 North 462 532 29,100 840 Climbing FlightAware
07:48AM 34.3580 -96.9930 North 466 536 29,500 600 Climbing FlightAware
07:49AM 34.4250 -96.9640 20° North 466 536 30,000 960 Climbing FlightAware
07:50AM 34.5140 -96.9060 28° Northeast 463 533 30,900 780 Climbing FlightAware
07:50AM 34.5810 -96.8620 28° Northeast 462 532 31,100 1,500 Climbing FlightAware
07:51AM 34.6530 -96.8150 28° Northeast 454 522 32,500 2,100 Climbing FlightAware
07:51AM 34.7360 -96.7610 28° Northeast 443 510 33,600 1,200 Climbing FlightAware
07:52AM 34.8080 -96.7140 28° Northeast 446 513 34,200 960 Climbing FlightAware
07:53AM 34.8790 -96.6680 28° Northeast 441 507 34,900 540 Climbing FlightAware
07:53AM 34.9390 -96.6280 29° Northeast 435 501 35,000 60 Climbing FlightAware
07:54AM 35.0040 -96.5860 28° Northeast 438 504 35,000  Level FlightAware
07:55AM 35.0840 -96.5330 28° Northeast 442 509 35,000  Level FlightAware
07:55AM 35.1690 -96.4770 28° Northeast 442 509 35,000  Level FlightAware
07:56AM 35.2490 -96.4240 28° Northeast 441 507 35,000  Level FlightAware
07:57AM 35.3160 -96.3800 28° Northeast 441 507 35,000  Level FlightAware
07:57AM 35.3620 -96.3490 29° Northeast 442 509 35,000  Level FlightAware
07:58AM 35.4420 -96.2960 28° Northeast 441 507 35,000  Level FlightAware
07:59AM 35.5060 -96.2540 28° Northeast 442 509 35,000  Level FlightAware
08:00AM 35.6100 -96.1840 29° Northeast 442 509 35,000  Level FlightAware
08:00AM 35.6840 -96.1340 29° Northeast 442 509 35,000  Level FlightAware
08:01AM 35.7590 -96.0800 30° Northeast 441 507 35,000  Level FlightAware
08:02AM 35.8350 -96.0220 32° Northeast 439 505 35,000  Level FlightAware
08:02AM 35.8940 -95.9780 31° Northeast 438 504 35,000  Level FlightAware
08:03AM 35.9550 -95.9330 31° Northeast 437 503 35,000  Level FlightAware
08:04AM 36.0210 -95.8840 31° Northeast 437 503 35,000  Level FlightAware
08:04AM 36.0760 -95.8420 32° Northeast 435 501 35,000  Level FlightAware
08:05AM 36.1350 -95.7990 30° Northeast 435 501 35,000  Level FlightAware
08:06AM 36.2430 -95.7170 31° Northeast 432 497 35,000  Level FlightAware
08:06AM 36.3090 -95.6670 31° Northeast 433 498 35,000  Level FlightAware
08:07AM 36.3640 -95.6250 32° Northeast 433 498 35,000  Level FlightAware
08:08AM 36.4600 -95.5530 31° Northeast 434 499 35,000  Level FlightAware
08:08AM 36.5320 -95.4970 32° Northeast 436 502 35,000  Level FlightAware
08:09AM 36.6060 -95.4420 31° Northeast 435 501 35,000  Level FlightAware
08:10AM 36.6750 -95.3890 32° Northeast 435 501 35,000  Level FlightAware
08:11AM 36.7570 -95.3260 32° Northeast 435 501 35,000  Level FlightAware
08:11AM 36.8200 -95.2780 31° Northeast 435 501 35,000  Level FlightAware
08:12AM 36.8930 -95.2210 32° Northeast 435 501 35,000  Level FlightAware
08:13AM 36.9680 -95.1640 31° Northeast 435 501 35,000  Level FlightAware
08:13AM 37.0300 -95.1160 32° Northeast 437 503 35,000  Level FlightAware
08:14AM 37.0790 -95.0780 32° Northeast 438 504 35,000  Level FlightAware
08:15AM 37.1560 -95.0190 31° Northeast 440 506 35,000  Level FlightAware
08:16AM 37.2560 -94.9410 32° Northeast 441 507 35,000  Level FlightAware
08:16AM 37.3490 -94.8680 32° Northeast 442 509 35,000  Level FlightAware
08:17AM 37.4270 -94.8070 32° Northeast 442 509 35,000  Level FlightAware
08:18AM 37.4940 -94.7400 38° Northeast 446 513 35,000  Level FlightAware
08:18AM 37.5540 -94.6770 40° Northeast 447 514 35,000  Level FlightAware
08:19AM 37.6130 -94.6160 39° Northeast 449 517 35,000  Level FlightAware
08:20AM 37.6700 -94.5580 39° Northeast 449 517 35,000  Level FlightAware
08:21AM 37.7450 -94.4790 40° Northeast 449 517 35,000  Level FlightAware
08:21AM 37.8030 -94.4200 39° Northeast 449 517 35,000  Level FlightAware
08:22AM 37.8870 -94.3320 40° Northeast 449 517 35,000  Level FlightAware
08:23AM 37.9570 -94.2590 39° Northeast 451 519 35,000  Level FlightAware
08:23AM 38.0210 -94.1920 40° Northeast 452 520 35,000  Level FlightAware
08:24AM 38.0860 -94.1240 39° Northeast 453 521 35,000  Level FlightAware
08:24AM 38.1440 -94.0630 40° Northeast 453 521 35,000  Level FlightAware
08:25AM 38.2030 -94.0010 40° Northeast 454 522 35,000  Level FlightAware
08:26AM 38.2660 -93.9340 40° Northeast 453 521 35,000  Level FlightAware
08:27AM 38.3320 -93.8640 40° Northeast 453 521 35,000 -120 Level FlightAware
08:27AM 38.3930 -93.8000 39° Northeast 455 524 34,900  Descending FlightAware
08:28AM 38.4860 -93.7000 40° Northeast 459 528 35,000 60 Climbing FlightAware
08:29AM 38.5520 -93.6300 40° Northeast 460 529 35,000  Level FlightAware
08:29AM 38.6220 -93.5550 40° Northeast 462 532 35,000  Level FlightAware
08:30AM 38.6890 -93.4830 40° Northeast 463 533 35,000  Level FlightAware
08:31AM 38.7550 -93.4120 40° Northeast 467 537 35,000  Level FlightAware
08:31AM 38.8050 -93.3580 40° Northeast 469 540 35,000  Level FlightAware
08:32AM 38.8810 -93.2750 40° Northeast 469 540 35,000  Level FlightAware
08:33AM 38.9480 -93.2030 40° Northeast 469 540 35,000  Level FlightAware
08:33AM 39.0230 -93.1220 40° Northeast 469 540 35,000  Level FlightAware
08:34AM 39.1270 -93.0080 40° Northeast 468 539 35,000  Level FlightAware
08:35AM 39.2020 -92.9260 40° Northeast 469 540 35,000  Level FlightAware
08:36AM 39.2690 -92.8520 41° Northeast 469 540 35,000  Level FlightAware
08:37AM 39.3410 -92.7740 40° Northeast 470 541 35,000 -300 Level FlightAware
08:37AM 39.4020 -92.7060 41° Northeast 472 543 34,600 -780 Descending FlightAware
08:38AM 39.4640 -92.6380 40° Northeast 475 547 34,000 -540 Descending FlightAware
08:39AM 39.5470 -92.5460 41° Northeast 476 548 33,700 -180 Descending FlightAware
08:40AM 39.6040 -92.4840 40° Northeast 476 548 33,700 -540 Level FlightAware
08:40AM 39.6900 -92.3870 41° Northeast 476 548 33,000 -480 Descending FlightAware
08:41AM 39.7590 -92.3120 40° Northeast 476 548 33,000  Level FlightAware
08:42AM 39.8570 -92.1980 42° Northeast 483 556 33,000  Level FlightAware
08:43AM 39.9460 -92.0990 40° Northeast 487 560 33,000  Level FlightAware
08:43AM 40.0200 -92.0150 41° Northeast 486 559 33,000  Level FlightAware
08:44AM 40.0800 -91.9470 41° Northeast 486 559 33,000  Level FlightAware
08:45AM 40.1330 -91.8860 41° Northeast 484 557 33,000  Level FlightAware
08:45AM 40.2030 -91.8060 41° Northeast 481 554 33,000  Level FlightAware
08:46AM 40.2580 -91.7440 41° Northeast 481 554 33,000  Level FlightAware
08:47AM 40.3760 -91.6090 41° Northeast 484 557 33,000  Level FlightAware
08:48AM 40.4600 -91.5120 41° Northeast 482 555 33,000  Level FlightAware
08:48AM 40.5240 -91.4380 41° Northeast 483 556 33,000  Level FlightAware
08:49AM 40.5720 -91.3520 54° Northeast 496 571 33,000  Level FlightAware
08:50AM 40.6250 -91.1950 66° East 491 565 33,000  Level FlightAware
08:51AM 40.6660 -91.0760 66° East 488 562 33,000 -120 Level FlightAware
08:51AM 40.7090 -90.9500 66° East 485 558 32,900 -480 Descending FlightAware
08:52AM 40.7460 -90.8410 66° East 482 555 32,300 -960 Descending FlightAware
08:53AM 40.7790 -90.7440 66° East 480 552 31,700 -1,020 Descending FlightAware
08:53AM 40.8150 -90.6350 66° East 476 548 31,000 -840 Descending FlightAware
08:54AM 40.8410 -90.5590 66° East 474 545 30,600 -780 Descending FlightAware
08:55AM 40.8730 -90.4620 66° East 470 541 30,000 -1,380 Descending FlightAware
08:55AM 40.9050 -90.3670 66° East 469 540 28,900 -2,220 Descending FlightAware
08:56AM 40.9460 -90.2420 66° East 464 534 27,100 -2,880 Descending FlightAware
08:57AM 40.9890 -90.1110 66° East 462 532 24,900 -2,220 Descending FlightAware
08:58AM 41.0270 -89.9980 66° East 463 533 24,000 -660 Descending FlightAware
08:58AM 41.0590 -89.8980 67° East 464 534 24,000  Level FlightAware
08:59AM 41.0840 -89.8230 66° East 464 534 24,000  Level FlightAware
09:00AM 41.1400 -89.6490 67° East 476 548 24,000 -120 Level FlightAware
09:00AM 41.1810 -89.5360 64° Northeast 474 545 23,900 -1,020 Descending FlightAware
09:01AM 41.2190 -89.4430 61° Northeast 468 539 22,700 -1,860 Descending FlightAware
09:02AM 41.2480 -89.3700 62° Northeast 459 528 21,500 -2,100 Descending FlightAware
09:02AM 41.2890 -89.2700 61° Northeast 451 519 19,800 -3,120 Descending FlightAware
09:03AM 41.3420 -89.1370 62° Northeast 445 512 17,300 -2,880 Descending FlightAware
09:04AM 41.3770 -89.0510 62° Northeast 439 505 16,100 -2,040 Descending FlightAware
09:05AM 41.4220 -88.9360 62° Northeast 423 487 14,400 -1,860 Descending FlightAware
09:05AM 41.4480 -88.8710 62° Northeast 420 483 13,400 -1,740 Descending FlightAware
09:06AM 41.4820 -88.7860 62° Northeast 404 465 12,200 -1,680 Descending FlightAware
09:07AM 41.5220 -88.6850 62° Northeast 397 457 11,000 -840 Descending FlightAware
09:07AM 41.5600 -88.5880 62° Northeast 398 458 11,100 60 Climbing FlightAware
09:08AM 41.5990 -88.4920 61° Northeast 394 453 11,100  Level FlightAware
09:09AM 41.6450 -88.4060 54° Northeast 390 449 11,100  Level FlightAware
09:09AM 41.6670 -88.3690 51° Northeast 390 449 11,100  Level FlightAware
09:10AM 41.7270 -88.2660 52° Northeast 390 449 11,100 -180 Level FlightAware
09:11AM 41.7770 -88.1790 52° Northeast 369 425 10,800 -660 Descending FlightAware
09:11AM 41.8250 -88.0970 52° Northeast 329 379 10,200 -960 Descending FlightAware
09:12AM 41.8540 -88.0440 54° Northeast 312 359 9,700 -900 Descending FlightAware
09:12AM 41.8780 -88.0010 53° Northeast 296 341 9,300 -780 Descending FlightAware
09:13AM 41.8830 -87.9840 68° East 297 342 9,200 -480 Descending FlightAware
09:13AM 41.8850 -87.9620 83° East 294 338 9,100 -600 Descending FlightAware
09:13AM 41.8850 -87.9510 90° East 291 335 9,000 -480 Descending FlightAware
09:14AM 41.8850 -87.9070 90° East 274 315 8,800 -660 Descending FlightAware
09:14AM 41.8840 -87.8500 91° East 263 303 8,300 -1,200 Descending FlightAware
09:15AM 41.8840 -87.7840 90° East 263 303 7,300 -1,680 Descending FlightAware
09:15AM 41.8840 -87.7150 90° East 252 290 6,300 -1,860 Descending FlightAware
09:16AM 41.8920 -87.6810 72° East 239 275 5,600 -1,920 Descending FlightAware
09:16AM 41.9020 -87.6700 39° Northeast 231 266 5,200 -1,620 Descending FlightAware
09:16AM 41.9160 -87.6660 12° North 221 254 4,900 -1,740 Descending FlightAware
09:17AM 41.9390 -87.6810 334° Northwest 216 249 4,100 -1,800 Descending FlightAware
09:17AM 41.9470 -87.6980 302° West 219 252 3,700 -1,380 Descending FlightAware
09:17AM 41.9570 -87.7320 292° West 225 259 3,100 -1,200 Descending FlightAware
09:18AM 41.9670 -87.7650 292° West 192 221 2,600 -1,140 Descending FlightAware
09:18AM 41.9690 -87.7860 277° West 181 208 2,300 -1,200 Descending FlightAware
09:18AM 41.9690 -87.7990 270° West 165 190 2,000 -1,080 Descending FlightAware
09:19AM 41.9690 -87.8250 270° West 150 173 1,600 -960 Descending FlightAware
09:19AM 41.9690 -87.8550 270° West 144 166 1,100 -780 Descending FlightAware
09:20AM 41.9690 -87.8750 270° West 143 165 900 -240 Descending FlightAware
09:20AM 41.9690 -87.8950 270° West 143 165 900  Level FlightAware